createdAt,value
2022-11-15T00:00:31.935Z,8.83
2022-11-15T00:02:58.363Z,8.83
2022-11-15T00:05:25.077Z,8.90
2022-11-15T00:07:56.171Z,8.93
2022-11-15T00:10:22.849Z,8.76
2022-11-15T00:12:49.332Z,8.98
2022-11-15T00:15:15.834Z,8.91
2022-11-15T00:17:42.304Z,9.02
2022-11-15T00:20:09.281Z,9.08
2022-11-15T00:22:35.746Z,9.11
2022-11-15T00:25:02.234Z,9.15
2022-11-15T00:27:28.728Z,9.14
2022-11-15T00:29:55.199Z,9.22
2022-11-15T00:32:21.708Z,9.25
2022-11-15T00:34:48.150Z,9.29
2022-11-15T00:37:14.592Z,9.30
2022-11-15T00:39:41.039Z,9.34
2022-11-15T00:42:07.472Z,9.36
2022-11-15T00:44:34.347Z,9.31
2022-11-15T00:47:00.821Z,9.40
2022-11-15T00:49:27.248Z,9.44
2022-11-15T00:51:53.680Z,9.46
2022-11-15T00:54:20.103Z,9.46
2022-11-15T00:56:46.720Z,9.46
2022-11-15T00:59:13.200Z,9.48
2022-11-15T01:01:39.631Z,9.44
2022-11-15T01:04:06.138Z,9.10
2022-11-15T01:06:32.587Z,9.48
2022-11-15T01:08:59.027Z,9.47
2022-11-15T01:11:25.447Z,9.46
2022-11-15T01:13:51.854Z,9.46
2022-11-15T01:16:19.509Z,9.47
2022-11-15T01:18:46.743Z,9.46
2022-11-15T01:21:18.282Z,9.46
2022-11-15T01:23:45.811Z,9.46
2022-11-15T01:26:14.974Z,9.46
2022-11-15T01:28:42.657Z,9.42
2022-11-15T01:31:18.570Z,9.45
2022-11-15T01:33:45.813Z,9.45
2022-11-15T01:36:15.111Z,9.44
2022-11-15T01:38:42.005Z,9.43
2022-11-15T01:41:16.668Z,9.38
2022-11-15T01:43:43.156Z,9.38
2022-11-15T01:46:22.832Z,9.27
2022-11-15T01:48:52.671Z,9.39
2022-11-15T01:51:21.024Z,9.40
2022-11-15T01:53:52.606Z,9.41
2022-11-15T01:56:26.780Z,9.42
2022-11-15T01:58:56.384Z,9.41
2022-11-15T02:01:25.406Z,9.41
2022-11-15T02:04:01.732Z,9.32
2022-11-15T02:06:28.198Z,9.40
2022-11-15T02:08:57.302Z,9.42
2022-11-15T02:11:23.760Z,9.40
2022-11-15T02:13:50.353Z,9.43
2022-11-15T02:16:35.176Z,9.42
2022-11-15T02:19:13.800Z,9.39
2022-11-15T02:22:05.020Z,9.43
2022-11-15T02:25:09.987Z,9.52
2022-11-15T02:28:08.740Z,9.58
2022-11-15T02:30:42.860Z,9.62
2022-11-15T02:33:20.031Z,9.69
2022-11-15T02:36:00.642Z,9.74
2022-11-15T02:38:51.337Z,9.81
2022-11-15T02:41:44.506Z,9.89
2022-11-15T02:44:27.671Z,9.91
2022-11-15T02:47:14.152Z,9.94
2022-11-15T02:49:44.540Z,9.97
2022-11-15T02:52:16.189Z,9.97
2022-11-15T02:54:42.619Z,9.99
2022-11-15T02:57:16.569Z,9.98
2022-11-15T02:59:52.063Z,9.99
2022-11-15T03:03:03.612Z,10.00
2022-11-15T03:05:40.291Z,10.05
2022-11-15T03:08:31.895Z,10.12
2022-11-15T03:11:14.548Z,10.20
2022-11-15T03:14:10.158Z,10.27
2022-11-15T03:16:58.884Z,10.29
2022-11-15T03:19:55.132Z,10.13
2022-11-15T03:22:25.599Z,10.33
2022-11-15T03:24:56.947Z,10.53
2022-11-15T03:27:29.340Z,10.63
2022-11-15T03:30:00.585Z,10.70
2022-11-15T03:32:30.979Z,10.76
2022-11-15T03:35:03.224Z,10.85
2022-11-15T03:38:01.028Z,10.92
2022-11-15T03:40:38.421Z,11.01
2022-11-15T03:43:11.469Z,10.90
2022-11-15T03:45:47.572Z,11.13
2022-11-15T03:48:25.496Z,11.20
2022-11-15T03:50:52.801Z,10.90
2022-11-15T03:53:19.232Z,11.27
2022-11-15T03:55:45.689Z,11.30
2022-11-15T03:58:12.147Z,11.40
2022-11-15T04:00:38.595Z,11.44
2022-11-15T04:03:05.043Z,11.46
2022-11-15T04:05:31.501Z,11.47
2022-11-15T04:07:57.962Z,11.50
2022-11-15T04:10:24.506Z,11.30
2022-11-15T04:12:51.064Z,11.29
2022-11-15T04:15:20.479Z,11.54
2022-11-15T04:17:52.597Z,11.56
2022-11-15T04:20:39.073Z,11.58
2022-11-15T04:23:26.663Z,11.59
2022-11-15T04:25:54.981Z,11.60
2022-11-15T04:28:22.284Z,11.63
2022-11-15T04:30:48.939Z,11.65
2022-11-15T04:33:15.885Z,11.66
2022-11-15T04:35:43.134Z,11.70
2022-11-15T04:38:11.588Z,11.72
2022-11-15T04:40:38.578Z,11.76
2022-11-15T04:43:05.334Z,11.73
2022-11-15T04:45:31.771Z,11.82
2022-11-15T04:47:58.268Z,11.85
2022-11-15T04:50:24.676Z,11.88
2022-11-15T04:52:53.587Z,11.89
2022-11-15T04:55:20.457Z,11.91
2022-11-15T04:57:46.945Z,11.89
2022-11-15T05:00:16.012Z,11.94
2022-11-15T05:03:00.837Z,11.97
2022-11-15T05:05:27.275Z,11.99
2022-11-15T05:07:53.796Z,11.98
2022-11-15T05:10:20.199Z,12.01
2022-11-15T05:12:47.762Z,12.03
2022-11-15T05:15:14.272Z,12.03
2022-11-15T05:17:40.751Z,11.97
2022-11-15T05:20:07.831Z,12.02
2022-11-15T05:22:34.264Z,12.09
2022-11-15T05:25:00.753Z,12.07
2022-11-15T05:27:27.209Z,12.06
2022-11-15T05:29:53.702Z,12.06
2022-11-15T05:32:20.119Z,12.08
2022-11-15T05:34:46.707Z,12.07
2022-11-15T05:37:14.935Z,12.09
2022-11-15T05:39:41.353Z,12.07
2022-11-15T05:42:14.018Z,12.06
2022-11-15T05:44:45.467Z,11.95
2022-11-15T05:47:16.705Z,12.05
2022-11-15T05:49:45.470Z,12.03
2022-11-15T05:52:16.530Z,12.05
2022-11-15T05:54:43.691Z,12.03
2022-11-15T05:57:10.441Z,12.04
2022-11-15T05:59:37.505Z,12.03
2022-11-15T06:02:04.146Z,11.99
2022-11-15T06:04:30.723Z,12.00
2022-11-15T06:06:59.736Z,12.00
2022-11-15T06:09:26.263Z,12.00
2022-11-15T06:11:52.690Z,12.01
2022-11-15T06:14:19.142Z,11.96
2022-11-15T06:16:45.540Z,11.96
2022-11-15T06:19:12.039Z,11.95
2022-11-15T06:21:38.506Z,11.94
2022-11-15T06:24:06.511Z,11.92
2022-11-15T06:26:33.135Z,11.91
2022-11-15T06:28:59.626Z,11.85
2022-11-15T06:31:26.054Z,11.84
2022-11-15T06:33:52.501Z,11.83
2022-11-15T06:36:19.017Z,11.76
2022-11-15T06:38:46.123Z,11.74
2022-11-15T06:41:14.284Z,11.71
2022-11-15T06:43:41.331Z,11.68
2022-11-15T06:46:08.777Z,11.50
2022-11-15T06:48:35.618Z,11.61
2022-11-15T06:51:03.808Z,11.56
2022-11-15T06:53:32.267Z,11.52
2022-11-15T06:56:03.951Z,11.54
2022-11-15T06:58:30.445Z,11.50
2022-11-15T07:01:09.528Z,11.53
2022-11-15T07:03:37.847Z,11.31
2022-11-15T07:06:07.404Z,11.50
2022-11-15T07:08:35.874Z,11.49
2022-11-15T07:11:06.231Z,11.13
2022-11-15T07:13:37.003Z,11.48
2022-11-15T07:16:09.013Z,11.47
2022-11-15T07:18:36.800Z,11.46
2022-11-15T07:21:05.679Z,11.46
2022-11-15T07:23:32.823Z,11.48
2022-11-15T07:25:59.889Z,11.46
2022-11-15T07:28:27.538Z,11.42
2022-11-15T07:30:54.367Z,11.40
2022-11-15T07:33:20.854Z,11.37
2022-11-15T07:35:50.508Z,11.37
2022-11-15T07:38:20.509Z,11.28
2022-11-15T07:40:47.709Z,11.30
2022-11-15T07:43:14.380Z,11.40
2022-11-15T07:45:45.799Z,11.34
2022-11-15T07:48:12.632Z,11.32
2022-11-15T07:50:43.192Z,11.24
2022-11-15T07:53:10.204Z,11.25
2022-11-15T07:55:37.176Z,11.05
2022-11-15T07:58:05.647Z,11.25
2022-11-15T08:00:33.000Z,11.27
2022-11-15T08:03:14.194Z,11.20
2022-11-15T08:05:42.289Z,11.23
2022-11-15T08:08:10.958Z,11.15
2022-11-15T08:10:40.815Z,11.13
2022-11-15T08:13:09.414Z,11.18
2022-11-15T08:15:37.240Z,11.22
2022-11-15T08:18:12.489Z,11.23
2022-11-15T08:20:39.129Z,11.36
2022-11-15T08:23:06.532Z,11.38
2022-11-15T08:25:34.955Z,11.38
2022-11-15T08:28:04.119Z,11.46
2022-11-15T08:30:31.687Z,11.43
2022-11-15T08:32:59.753Z,11.47
2022-11-15T08:35:29.004Z,11.50
2022-11-15T08:37:55.957Z,11.42
2022-11-15T08:40:23.674Z,11.47
2022-11-15T08:42:50.213Z,11.45
2022-11-15T08:45:16.675Z,11.45
2022-11-15T08:47:43.171Z,11.42
2022-11-15T08:50:09.887Z,11.46
2022-11-15T08:52:36.384Z,11.49
2022-11-15T08:55:02.870Z,11.51
2022-11-15T08:57:31.266Z,11.59
2022-11-15T08:59:58.542Z,11.60
2022-11-15T09:02:25.135Z,11.49
2022-11-15T09:04:51.686Z,11.61
2022-11-15T09:07:18.569Z,11.78
2022-11-15T09:09:45.211Z,11.77
2022-11-15T09:12:11.819Z,11.88
2022-11-15T09:14:38.707Z,11.95
2022-11-15T09:17:09.533Z,12.05
2022-11-15T09:19:36.056Z,11.95
2022-11-15T09:22:02.578Z,12.22
2022-11-15T09:24:29.070Z,12.34
2022-11-15T09:26:55.481Z,12.46
2022-11-15T09:29:21.974Z,12.57
2022-11-15T09:31:48.438Z,12.48
2022-11-15T09:34:14.952Z,12.52
2022-11-15T09:36:41.428Z,12.45
2022-11-15T09:39:07.910Z,12.53
2022-11-15T09:41:59.510Z,12.71
2022-11-15T09:44:54.346Z,12.74
2022-11-15T09:47:29.730Z,12.82
2022-11-15T09:49:59.579Z,12.93
2022-11-15T09:52:26.080Z,12.81
2022-11-15T09:54:55.582Z,12.71
2022-11-15T09:57:38.865Z,12.63
2022-11-15T10:00:44.613Z,12.79
2022-11-15T10:03:34.539Z,12.91
2022-11-15T10:06:06.319Z,12.92
2022-11-15T10:08:38.772Z,12.91
2022-11-15T10:14:02.439Z,12.94
2022-11-15T10:16:31.923Z,12.94
2022-11-15T10:19:13.732Z,12.90
2022-11-15T10:22:15.740Z,12.93
2022-11-15T10:24:46.029Z,12.86
2022-11-15T10:27:18.228Z,12.89
2022-11-15T10:29:50.196Z,12.87
2022-11-15T10:32:21.278Z,12.91
2022-11-15T10:34:49.563Z,12.83
2022-11-15T10:37:28.034Z,12.71
2022-11-15T10:40:04.947Z,12.73
2022-11-15T10:42:31.482Z,12.78
2022-11-15T10:44:57.913Z,12.57
2022-11-15T10:47:37.787Z,12.82
2022-11-15T10:50:28.439Z,12.84
2022-11-15T10:52:55.098Z,12.93
2022-11-15T10:55:29.530Z,12.95
2022-11-15T10:58:02.475Z,12.77
2022-11-15T11:00:33.654Z,12.87
2022-11-15T11:03:08.054Z,12.91
2022-11-15T11:05:42.663Z,12.78
2022-11-15T11:08:15.420Z,12.89
2022-11-15T11:11:00.273Z,12.94
2022-11-15T11:13:38.393Z,13.07
2022-11-15T11:16:23.459Z,13.19
2022-11-15T11:18:55.839Z,13.31
2022-11-15T11:21:45.074Z,13.46
2022-11-15T11:24:30.283Z,13.46
2022-11-15T11:27:22.855Z,13.48
2022-11-15T11:30:09.081Z,13.59
2022-11-15T11:32:55.059Z,13.88
2022-11-15T11:35:34.679Z,14.10
2022-11-15T11:38:18.670Z,14.22
2022-11-15T11:41:00.455Z,14.50
2022-11-15T11:43:49.053Z,14.63
2022-11-15T11:46:18.513Z,14.72
2022-11-15T11:48:48.679Z,14.68
2022-11-15T11:51:25.535Z,14.86
2022-11-15T11:53:55.645Z,14.72
2022-11-15T11:56:44.467Z,14.40
2022-11-15T11:59:24.916Z,14.45
2022-11-15T12:01:51.836Z,14.54
2022-11-15T12:04:30.516Z,14.67
2022-11-15T12:07:04.633Z,14.86
2022-11-15T12:10:22.083Z,14.98
2022-11-15T12:12:57.667Z,15.15
2022-11-15T12:15:32.163Z,15.09
2022-11-15T12:18:01.179Z,15.13
2022-11-15T12:20:34.739Z,15.46
2022-11-15T12:23:04.724Z,15.63
2022-11-15T12:25:34.074Z,15.75
2022-11-15T12:28:09.589Z,15.93
2022-11-15T12:30:47.817Z,16.20
2022-11-15T12:33:38.131Z,16.30
2022-11-15T12:36:13.439Z,16.09
2022-11-15T12:38:57.008Z,16.33
2022-11-15T12:41:34.679Z,16.28
2022-11-15T12:44:02.326Z,16.34
2022-11-15T12:46:31.827Z,16.41
2022-11-15T12:49:12.659Z,16.26
2022-11-15T12:51:48.320Z,15.93
2022-11-15T12:54:23.961Z,15.85
2022-11-15T12:57:08.777Z,15.91
2022-11-15T13:00:05.170Z,15.53
2022-11-15T13:02:46.320Z,15.53
2022-11-15T13:05:19.315Z,15.36
2022-11-15T13:07:45.723Z,15.41
2022-11-15T13:10:14.948Z,15.24
2022-11-15T13:12:47.516Z,15.30
2022-11-15T13:15:13.924Z,15.10
2022-11-15T13:17:51.117Z,15.04
2022-11-15T13:20:17.532Z,15.02
2022-11-15T13:22:53.057Z,14.92
2022-11-15T13:25:24.528Z,14.87
2022-11-15T13:27:52.082Z,14.75
2022-11-15T13:30:25.855Z,14.67
2022-11-15T13:32:53.558Z,14.72
2022-11-15T13:35:33.134Z,14.67
2022-11-15T13:38:04.933Z,14.62
2022-11-15T13:40:37.718Z,14.67
2022-11-15T13:43:22.484Z,14.61
2022-11-15T13:46:31.935Z,14.51
2022-11-15T13:49:09.049Z,14.54
2022-11-15T13:51:44.618Z,14.55
2022-11-15T13:54:13.972Z,14.50
2022-11-15T13:56:44.952Z,14.35
2022-11-15T13:59:18.180Z,14.56
2022-11-15T14:01:44.879Z,14.55
2022-11-15T14:04:18.902Z,14.55
2022-11-15T14:06:49.290Z,14.52
2022-11-15T14:09:25.552Z,14.44
2022-11-15T14:11:57.303Z,14.42
2022-11-15T14:14:25.989Z,14.40
2022-11-15T14:16:55.001Z,14.15
2022-11-15T14:19:21.435Z,14.15
2022-11-15T14:22:15.933Z,13.95
2022-11-15T14:24:48.184Z,13.85
2022-11-15T14:27:17.698Z,13.83
2022-11-15T14:29:44.131Z,13.70
2022-11-15T14:32:17.519Z,13.65
2022-11-15T14:34:44.022Z,13.61
2022-11-15T14:37:27.417Z,13.65
2022-11-15T14:39:54.828Z,13.64
2022-11-15T14:42:22.953Z,13.64
2022-11-15T14:44:49.474Z,13.66
2022-11-15T14:47:15.965Z,13.62
2022-11-15T14:49:42.935Z,13.54
2022-11-15T14:52:31.816Z,13.56
2022-11-15T14:55:00.222Z,13.49
2022-11-15T14:57:26.735Z,13.45
2022-11-15T14:59:53.431Z,13.48
2022-11-15T15:02:22.610Z,13.51
2022-11-15T15:04:50.205Z,13.44
2022-11-15T15:07:17.687Z,13.38
2022-11-15T15:09:45.517Z,13.26
2022-11-15T15:12:24.411Z,13.27
2022-11-15T15:14:51.595Z,13.18
2022-11-15T15:17:18.461Z,13.26
2022-11-15T15:19:45.140Z,13.18
2022-11-15T15:22:17.348Z,13.20
2022-11-15T15:24:45.039Z,13.09
2022-11-15T15:27:11.898Z,13.12
2022-11-15T15:29:38.619Z,13.13
2022-11-15T15:32:06.359Z,13.09
2022-11-15T15:34:33.672Z,13.07
2022-11-15T15:37:23.879Z,13.11
2022-11-15T15:39:55.145Z,13.10
2022-11-15T15:42:23.133Z,13.10
2022-11-15T15:44:50.891Z,13.04
2022-11-15T15:47:22.283Z,13.02
2022-11-15T15:49:49.894Z,13.12
2022-11-15T15:52:16.835Z,13.12
2022-11-15T15:54:43.403Z,13.15
2022-11-15T15:57:13.399Z,13.11
2022-11-15T15:59:39.987Z,13.06
2022-11-15T16:02:07.483Z,12.93
2022-11-15T16:04:33.966Z,13.09
2022-11-15T16:07:01.669Z,13.12
2022-11-15T16:09:46.637Z,13.09
2022-11-15T16:12:13.103Z,13.04
2022-11-15T16:14:42.992Z,12.99
2022-11-15T16:17:20.233Z,13.04
2022-11-15T16:19:46.708Z,13.05
2022-11-15T16:22:13.318Z,13.05
2022-11-15T16:24:39.812Z,13.03
2022-11-15T16:27:06.380Z,13.10
2022-11-15T16:29:32.887Z,13.05
2022-11-15T16:31:59.354Z,13.11
2022-11-15T16:34:29.981Z,12.98
2022-11-15T16:36:57.539Z,12.93
2022-11-15T16:39:24.096Z,13.02
2022-11-15T16:41:50.622Z,12.91
2022-11-15T16:44:17.161Z,13.05
2022-11-15T16:46:43.910Z,13.05
2022-11-15T16:49:14.170Z,12.98
2022-11-15T16:51:42.016Z,12.87
2022-11-15T16:54:08.612Z,13.05
2022-11-15T16:56:35.078Z,12.94
2022-11-15T16:59:02.217Z,13.09
2022-11-15T17:01:33.909Z,13.12
2022-11-15T17:04:12.412Z,13.15
2022-11-15T17:06:40.766Z,13.09
2022-11-15T17:09:11.499Z,13.12
2022-11-15T17:11:37.980Z,13.15
2022-11-15T17:14:04.438Z,13.14
2022-11-15T17:16:31.032Z,13.19
2022-11-15T17:18:57.569Z,13.13
2022-11-15T17:21:24.137Z,13.13
2022-11-15T17:23:50.654Z,13.08
2022-11-15T17:26:29.626Z,13.03
2022-11-15T17:28:57.512Z,13.05
2022-11-15T17:31:25.303Z,13.00
2022-11-15T17:33:51.752Z,13.00
2022-11-15T17:36:18.497Z,12.90
2022-11-15T17:38:50.255Z,12.89
2022-11-15T17:41:16.955Z,12.81
2022-11-15T17:43:43.406Z,12.75
2022-11-15T17:46:15.817Z,12.65
2022-11-15T17:48:43.585Z,12.69
2022-11-15T17:51:15.363Z,12.64
2022-11-15T17:53:44.146Z,12.61
2022-11-15T17:56:13.308Z,12.53
2022-11-15T17:58:40.543Z,12.42
2022-11-15T18:01:28.946Z,12.49
2022-11-15T18:03:57.029Z,12.31
2022-11-15T18:06:24.839Z,12.32
2022-11-15T18:08:52.919Z,12.34
2022-11-15T18:11:22.091Z,12.20
2022-11-15T18:13:55.066Z,12.17
2022-11-15T18:16:26.008Z,12.23
2022-11-15T18:18:54.048Z,11.91
2022-11-15T18:21:21.855Z,12.03
2022-11-15T18:23:49.771Z,12.06
2022-11-15T18:26:17.945Z,11.97
2022-11-15T18:28:47.691Z,11.88
2022-11-15T18:31:22.665Z,11.89
2022-11-15T18:33:50.959Z,11.86
2022-11-15T18:36:25.356Z,11.78
2022-11-15T18:38:55.943Z,11.73
2022-11-15T18:41:25.398Z,11.74
2022-11-15T18:43:52.562Z,11.61
2022-11-15T18:46:21.036Z,11.63
2022-11-15T18:48:52.561Z,11.59
2022-11-15T18:51:21.309Z,11.51
2022-11-15T18:53:47.984Z,11.62
2022-11-15T18:56:20.071Z,11.60
2022-11-15T18:58:59.109Z,11.51
2022-11-15T19:01:33.823Z,11.40
2022-11-15T19:04:07.522Z,11.40
2022-11-15T19:06:37.726Z,11.41
2022-11-15T19:09:04.230Z,11.34
2022-11-15T19:11:35.681Z,11.40
2022-11-15T19:14:07.935Z,11.34
2022-11-15T19:16:37.421Z,11.37
2022-11-15T19:19:06.976Z,11.26
2022-11-15T19:21:34.420Z,11.25
2022-11-15T19:24:01.418Z,11.30
2022-11-15T19:26:29.155Z,11.28
2022-11-15T19:29:00.847Z,11.26
2022-11-15T19:31:29.630Z,11.29
2022-11-15T19:33:57.895Z,11.12
2022-11-15T19:36:27.722Z,11.20
2022-11-15T19:38:55.336Z,11.24
2022-11-15T19:41:23.935Z,11.29
2022-11-15T19:43:51.046Z,11.29
2022-11-15T19:46:20.490Z,11.28
2022-11-15T19:48:47.762Z,11.28
2022-11-15T19:51:19.192Z,11.30
2022-11-15T19:53:45.735Z,11.21
2022-11-15T19:56:14.526Z,11.25
2022-11-15T19:58:41.558Z,11.23
2022-11-15T20:01:18.236Z,11.23
2022-11-15T20:03:45.545Z,11.25
2022-11-15T20:06:17.474Z,11.18
2022-11-15T20:08:45.257Z,11.22
2022-11-15T20:11:13.050Z,11.18
2022-11-15T20:13:39.750Z,11.13
2022-11-15T20:16:06.774Z,11.19
2022-11-15T20:18:34.634Z,11.20
2022-11-15T20:21:02.718Z,11.19
2022-11-15T20:23:29.184Z,11.08
2022-11-15T20:25:55.817Z,11.15
2022-11-15T20:28:27.289Z,11.11
2022-11-15T20:30:56.332Z,11.14
2022-11-15T20:33:23.873Z,11.15
2022-11-15T20:35:50.706Z,11.02
2022-11-15T20:38:17.572Z,11.02
2022-11-15T20:40:50.442Z,10.76
2022-11-15T20:43:19.184Z,11.07
2022-11-15T20:45:47.354Z,11.08
2022-11-15T20:48:15.168Z,11.01
2022-11-15T20:50:43.608Z,11.04
2022-11-15T20:53:12.741Z,11.06
2022-11-15T20:55:41.414Z,11.04
2022-11-15T20:58:08.942Z,11.02
2022-11-15T21:00:37.036Z,10.85
2022-11-15T21:03:07.931Z,11.08
2022-11-15T21:05:37.480Z,11.04
2022-11-15T21:08:04.238Z,11.06
2022-11-15T21:10:49.123Z,10.96
2022-11-15T21:13:15.578Z,11.10
2022-11-15T21:15:42.028Z,11.04
2022-11-15T21:18:08.594Z,11.07
2022-11-15T21:20:35.096Z,10.95
2022-11-15T21:23:01.586Z,11.12
2022-11-15T21:25:28.059Z,11.16
2022-11-15T21:27:54.549Z,11.14
2022-11-15T21:30:21.542Z,11.01
2022-11-15T21:32:48.046Z,11.12
2022-11-15T21:35:14.575Z,11.12
2022-11-15T21:37:41.607Z,11.13
2022-11-15T21:40:08.681Z,11.05
2022-11-15T21:42:35.092Z,10.99
2022-11-15T21:45:01.696Z,10.96
2022-11-15T21:47:28.300Z,11.02
2022-11-15T21:49:54.770Z,10.96
2022-11-15T21:52:21.425Z,11.01
2022-11-15T21:54:47.932Z,10.99
2022-11-15T21:57:14.422Z,10.94
2022-11-15T22:00:00.820Z,10.88
2022-11-15T22:02:27.289Z,10.89
2022-11-15T22:04:53.736Z,10.86
2022-11-15T22:07:20.375Z,10.91
2022-11-15T22:09:46.999Z,10.82
2022-11-15T22:12:13.440Z,10.81
2022-11-15T22:14:39.884Z,10.78
2022-11-15T22:17:06.327Z,10.78
2022-11-15T22:19:32.828Z,10.39
2022-11-15T22:21:59.403Z,10.74
2022-11-15T22:24:25.965Z,10.75
2022-11-15T22:26:52.523Z,10.71
2022-11-15T22:29:19.047Z,10.73
2022-11-15T22:31:46.048Z,10.69
2022-11-15T22:34:12.561Z,10.68
2022-11-15T22:37:13.125Z,10.66
2022-11-15T22:39:30.388Z,10.71
2022-11-15T22:41:56.902Z,10.73
2022-11-15T22:44:23.427Z,10.69
2022-11-15T22:46:50.003Z,10.71
2022-11-15T22:49:16.496Z,10.69
2022-11-15T22:51:43.053Z,10.65
2022-11-15T22:54:09.581Z,10.68
2022-11-15T22:56:36.080Z,10.67
2022-11-15T22:59:02.704Z,10.57
2022-11-15T23:01:29.341Z,10.68
2022-11-15T23:03:55.968Z,10.70
2022-11-15T23:06:22.575Z,10.72
2022-11-15T23:08:49.104Z,10.74
2022-11-15T23:11:34.020Z,10.72
2022-11-15T23:14:00.534Z,10.72
2022-11-15T23:16:34.297Z,10.71
2022-11-15T23:19:06.504Z,10.71
2022-11-15T23:21:56.552Z,10.77
2022-11-15T23:24:23.980Z,10.74
2022-11-15T23:26:56.294Z,10.79
2022-11-15T23:29:24.962Z,10.80
2022-11-15T23:32:11.106Z,10.81
2022-11-15T23:34:40.566Z,10.78
2022-11-15T23:37:08.861Z,10.80
2022-11-15T23:39:35.392Z,10.79
2022-11-15T23:42:07.537Z,10.79
2022-11-15T23:44:35.473Z,10.73
2022-11-15T23:47:02.106Z,10.77
2022-11-15T23:49:28.596Z,10.69
2022-11-15T23:51:55.314Z,10.71
2022-11-15T23:54:21.820Z,10.71
2022-11-15T23:56:48.365Z,10.64
2022-11-15T23:59:14.906Z,10.71
